createdAt,value
2022-08-06T00:00:07.727Z,89.50
2022-08-06T00:02:37.337Z,89.50
2022-08-06T00:05:08.083Z,89.50
2022-08-06T00:07:47.865Z,89.40
2022-08-06T00:10:18.777Z,89.40
2022-08-06T00:12:48.824Z,89.50
2022-08-06T00:16:06.322Z,89.40
2022-08-06T00:18:08.920Z,89.30
2022-08-06T00:20:42.808Z,89.30
2022-08-06T00:23:16.608Z,89.30
2022-08-06T00:25:51.968Z,89.40
2022-08-06T00:28:30.350Z,89.40
2022-08-06T00:31:01.027Z,89.30
2022-08-06T00:33:44.516Z,89.30
2022-08-06T00:36:28.252Z,89.30
2022-08-06T00:38:59.563Z,89.50
2022-08-06T00:41:30.704Z,89.50
2022-08-06T00:44:15.112Z,89.50
2022-08-06T00:46:47.970Z,89.50
2022-08-06T00:49:48.113Z,89.50
2022-08-06T00:52:08.469Z,89.50
2022-08-06T00:54:36.901Z,89.50
2022-08-06T00:57:11.945Z,89.60
2022-08-06T00:59:43.009Z,89.50
2022-08-06T01:02:11.891Z,89.60
2022-08-06T01:04:43.303Z,89.80
2022-08-06T01:07:13.103Z,90.00
2022-08-06T01:09:45.932Z,89.80
2022-08-06T01:12:33.674Z,89.80
2022-08-06T01:15:15.486Z,89.90
2022-08-06T01:17:58.060Z,89.90
2022-08-06T01:21:57.984Z,90.00
2022-08-06T01:23:49.531Z,90.00
2022-08-06T01:26:44.486Z,90.00
2022-08-06T01:29:22.874Z,90.00
2022-08-06T01:32:02.199Z,90.00
2022-08-06T01:34:39.059Z,90.10
2022-08-06T01:37:14.334Z,90.10
2022-08-06T01:39:53.791Z,90.10
2022-08-06T01:42:34.619Z,90.20
2022-08-06T01:45:07.482Z,90.20
2022-08-06T01:47:53.849Z,90.30
2022-08-06T01:50:27.858Z,90.30
2022-08-06T01:52:59.785Z,90.30
2022-08-06T01:55:56.104Z,90.40
2022-08-06T01:58:30.443Z,90.40
2022-08-06T02:01:03.712Z,90.50
2022-08-06T02:03:49.569Z,90.50
2022-08-06T02:06:29.600Z,90.50
2022-08-06T02:09:21.828Z,90.50
2022-08-06T02:12:02.818Z,90.60
2022-08-06T02:14:37.520Z,90.70
2022-08-06T02:17:13.646Z,90.60
2022-08-06T02:20:03.988Z,90.70
2022-08-06T02:22:42.601Z,90.80
2022-08-06T02:25:22.400Z,90.80
2022-08-06T02:27:59.334Z,90.90
2022-08-06T02:30:36.239Z,90.90
2022-08-06T02:33:08.623Z,90.90
2022-08-06T02:35:44.981Z,91.00
2022-08-06T02:38:23.626Z,91.00
2022-08-06T02:41:01.482Z,91.00
2022-08-06T02:43:36.579Z,91.00
2022-08-06T02:46:12.379Z,91.00
2022-08-06T02:48:48.691Z,91.10
2022-08-06T02:51:43.476Z,91.10
2022-08-06T02:54:17.749Z,91.00
2022-08-06T02:56:49.572Z,91.00
2022-08-06T02:59:26.192Z,90.90
2022-08-06T03:02:00.295Z,91.00
2022-08-06T03:04:38.582Z,91.10
2022-08-06T03:07:26.499Z,91.10
2022-08-06T03:09:57.967Z,91.20
2022-08-06T03:12:30.389Z,91.20
2022-08-06T03:15:07.152Z,91.20
2022-08-06T03:17:41.627Z,91.20
2022-08-06T03:20:17.189Z,91.10
2022-08-06T03:22:48.270Z,91.10
2022-08-06T03:25:21.182Z,91.10
2022-08-06T03:27:57.447Z,91.20
2022-08-06T03:30:33.777Z,91.30
2022-08-06T03:33:08.073Z,91.40
2022-08-06T03:35:56.339Z,91.40
2022-08-06T03:38:28.803Z,91.40
2022-08-06T03:41:00.710Z,91.50
2022-08-06T03:43:56.036Z,91.50
2022-08-06T03:46:26.641Z,91.50
2022-08-06T03:48:56.292Z,91.50
2022-08-06T03:51:50.830Z,91.50
2022-08-06T03:54:28.050Z,91.50
2022-08-06T03:57:08.479Z,91.50
2022-08-06T03:59:43.830Z,91.50
2022-08-06T04:02:36.945Z,91.50
2022-08-06T04:05:22.882Z,91.60
2022-08-06T04:07:57.908Z,91.60
2022-08-06T04:10:33.348Z,91.60
2022-08-06T04:13:08.457Z,91.70
2022-08-06T04:15:56.468Z,91.70
2022-08-06T04:18:28.137Z,91.70
2022-08-06T04:21:19.351Z,91.70
2022-08-06T04:23:50.798Z,91.80
2022-08-06T04:26:24.998Z,91.90
2022-08-06T04:28:57.359Z,92.00
2022-08-06T04:32:03.138Z,92.30
2022-08-06T04:34:27.479Z,92.30
2022-08-06T04:36:57.969Z,92.20
2022-08-06T04:39:37.723Z,92.40
2022-08-06T04:42:18.089Z,92.70
2022-08-06T04:44:59.428Z,92.70
2022-08-06T04:47:41.649Z,92.70
2022-08-06T04:50:17.868Z,93.00
2022-08-06T04:52:52.412Z,92.70
2022-08-06T04:55:33.593Z,92.60
2022-08-06T04:58:11.285Z,92.90
2022-08-06T05:01:04.021Z,92.60
2022-08-06T05:04:08.977Z,92.60
2022-08-06T05:06:37.811Z,92.60
2022-08-06T05:09:22.787Z,92.70
2022-08-06T05:12:01.911Z,92.70
2022-08-06T05:14:43.151Z,92.80
2022-08-06T05:17:15.686Z,92.90
2022-08-06T05:19:50.084Z,92.90
2022-08-06T05:22:53.896Z,92.90
2022-08-06T05:25:17.847Z,93.00
2022-08-06T05:28:03.435Z,93.10
2022-08-06T05:30:45.657Z,93.20
2022-08-06T05:33:24.117Z,93.30
2022-08-06T05:36:01.913Z,93.30
2022-08-06T05:38:36.913Z,93.40
2022-08-06T05:41:08.051Z,93.50
2022-08-06T05:43:59.028Z,93.60
2022-08-06T05:46:29.449Z,93.80
2022-08-06T05:49:12.265Z,94.00
2022-08-06T05:51:57.724Z,94.00
2022-08-06T05:54:33.481Z,94.20
2022-08-06T05:57:06.763Z,94.40
2022-08-06T05:59:57.833Z,94.50
2022-08-06T06:02:30.695Z,94.70
2022-08-06T06:06:07.562Z,94.70
2022-08-06T06:08:09.793Z,94.70
2022-08-06T06:10:43.872Z,94.80
2022-08-06T06:13:25.510Z,94.80
2022-08-06T06:16:22.293Z,94.70
2022-08-06T06:19:15.556Z,94.60
2022-08-06T06:21:53.633Z,94.50
2022-08-06T06:24:32.743Z,94.50
2022-08-06T06:27:36.222Z,94.40
2022-08-06T06:30:06.083Z,94.40
2022-08-06T06:32:50.163Z,94.40
2022-08-06T06:35:35.890Z,94.50
2022-08-06T06:38:19.219Z,94.30
2022-08-06T06:41:03.087Z,94.30
2022-08-06T06:43:44.651Z,94.10
2022-08-06T06:46:38.901Z,94.00
2022-08-06T06:50:00.419Z,94.10
2022-08-06T06:52:12.988Z,94.00
2022-08-06T06:54:59.594Z,94.10
2022-08-06T06:57:42.789Z,94.20
2022-08-06T07:00:45.504Z,94.20
2022-08-06T07:03:02.787Z,94.20
2022-08-06T07:06:04.485Z,94.40
2022-08-06T07:08:31.803Z,94.50
2022-08-06T07:11:08.589Z,94.80
2022-08-06T07:13:47.653Z,94.90
2022-08-06T07:16:34.341Z,95.00
2022-08-06T07:19:05.443Z,95.10
2022-08-06T07:21:36.232Z,95.30
2022-08-06T07:24:36.954Z,95.40
2022-08-06T07:26:57.872Z,95.40
2022-08-06T07:29:59.210Z,95.70
2022-08-06T07:32:30.596Z,95.60
2022-08-06T07:35:11.920Z,95.50
2022-08-06T07:37:46.762Z,95.90
2022-08-06T07:40:23.410Z,95.70
2022-08-06T07:42:56.039Z,95.70
2022-08-06T07:45:32.326Z,95.60
2022-08-06T07:48:16.705Z,95.40
2022-08-06T07:50:49.298Z,95.40
2022-08-06T07:53:21.193Z,95.40
2022-08-06T07:56:11.918Z,95.30
2022-08-06T07:58:45.994Z,95.30
2022-08-06T08:01:17.091Z,95.30
2022-08-06T08:04:34.065Z,94.80
2022-08-06T08:06:54.768Z,94.70
2022-08-06T08:09:29.375Z,94.40
2022-08-06T08:12:33.975Z,94.40
2022-08-06T08:15:17.984Z,94.20
2022-08-06T08:17:57.815Z,93.90
2022-08-06T08:20:33.728Z,93.60
2022-08-06T08:23:05.216Z,93.70
2022-08-06T08:25:42.116Z,94.40
2022-08-06T08:28:16.732Z,94.40
2022-08-06T08:30:48.033Z,94.40
2022-08-06T08:33:19.374Z,94.40
2022-08-06T08:35:50.122Z,94.30
2022-08-06T08:38:29.470Z,94.00
2022-08-06T08:41:02.938Z,93.80
2022-08-06T08:43:59.534Z,93.80
2022-08-06T08:46:30.761Z,93.80
2022-08-06T08:49:03.241Z,93.50
2022-08-06T08:51:42.213Z,93.40
2022-08-06T08:54:16.619Z,93.40
2022-08-06T08:57:06.269Z,93.30
2022-08-06T08:59:58.068Z,93.10
2022-08-06T09:02:28.362Z,92.70
2022-08-06T09:04:58.585Z,92.40
2022-08-06T09:07:35.906Z,92.40
2022-08-06T09:10:09.206Z,92.60
2022-08-06T09:12:45.222Z,92.40
2022-08-06T09:15:17.712Z,92.20
2022-08-06T09:18:25.889Z,91.90
2022-08-06T09:20:45.640Z,91.90
2022-08-06T09:23:19.119Z,92.10
2022-08-06T09:25:51.815Z,92.50
2022-08-06T09:28:35.820Z,92.70
2022-08-06T09:31:10.622Z,92.70
2022-08-06T09:34:18.843Z,92.30
2022-08-06T09:36:48.487Z,92.20
2022-08-06T09:39:23.273Z,91.90
2022-08-06T09:41:54.044Z,91.90
2022-08-06T09:44:37.040Z,91.70
2022-08-06T09:47:16.505Z,91.50
2022-08-06T09:50:00.218Z,91.50
2022-08-06T09:52:29.505Z,92.10
2022-08-06T09:54:57.963Z,92.30
2022-08-06T09:57:43.959Z,92.60
2022-08-06T10:00:26.963Z,93.00
2022-08-06T10:02:59.045Z,93.30
2022-08-06T10:05:50.385Z,93.40
2022-08-06T10:08:22.645Z,93.40
2022-08-06T10:10:52.420Z,93.20
2022-08-06T10:13:24.669Z,93.40
2022-08-06T10:16:00.598Z,93.80
2022-08-06T10:18:55.571Z,93.70
2022-08-06T10:21:33.263Z,93.70
2022-08-06T10:24:11.953Z,93.50
2022-08-06T10:26:43.342Z,93.30
2022-08-06T10:29:14.661Z,93.40
2022-08-06T10:31:52.701Z,93.30
2022-08-06T10:34:29.714Z,92.60
2022-08-06T10:37:07.782Z,92.00
2022-08-06T10:40:07.985Z,91.90
2022-08-06T10:42:40.534Z,91.70
2022-08-06T10:45:13.654Z,91.60
2022-08-06T10:49:00.910Z,91.50
2022-08-06T10:50:41.717Z,90.70
2022-08-06T10:53:20.794Z,90.40
2022-08-06T10:56:08.948Z,90.40
2022-08-06T10:58:39.089Z,90.20
2022-08-06T11:01:14.044Z,89.80
2022-08-06T11:04:14.117Z,89.20
2022-08-06T11:07:13.391Z,88.10
2022-08-06T11:10:27.080Z,87.60
2022-08-06T11:13:01.263Z,86.20
2022-08-06T11:15:37.634Z,85.10
2022-08-06T11:18:12.071Z,83.50
2022-08-06T11:20:47.333Z,83.60
2022-08-06T11:23:58.333Z,84.10
2022-08-06T11:26:36.434Z,84.20
2022-08-06T11:29:08.762Z,84.50
2022-08-06T11:31:43.440Z,84.20
2022-08-06T11:34:50.954Z,84.10
2022-08-06T11:38:03.711Z,83.20
2022-08-06T11:40:55.416Z,83.30
2022-08-06T11:44:03.227Z,82.10
2022-08-06T11:46:35.977Z,82.00
2022-08-06T11:49:18.182Z,82.20
2022-08-06T11:51:59.340Z,82.30
2022-08-06T11:54:38.520Z,81.70
2022-08-06T11:57:32.636Z,81.20
2022-08-06T12:00:16.171Z,81.60
2022-08-06T12:03:02.454Z,81.00
2022-08-06T12:05:57.077Z,80.50
2022-08-06T12:08:41.823Z,80.20
2022-08-06T12:11:34.389Z,80.30
2022-08-06T12:14:33.835Z,80.80
2022-08-06T12:16:58.615Z,80.40
2022-08-06T12:19:28.240Z,81.00
2022-08-06T12:21:57.687Z,80.20
2022-08-06T12:24:45.386Z,79.50
2022-08-06T12:27:25.100Z,79.20
2022-08-06T12:30:02.379Z,77.70
2022-08-06T12:32:31.854Z,77.30
2022-08-06T12:35:01.963Z,77.20
2022-08-06T12:37:41.588Z,77.20
2022-08-06T12:40:34.553Z,76.30
2022-08-06T12:43:14.948Z,75.30
2022-08-06T12:46:07.310Z,74.80
2022-08-06T12:48:34.609Z,74.40
2022-08-06T12:51:11.512Z,74.40
2022-08-06T12:53:47.269Z,74.20
2022-08-06T12:56:31.286Z,74.50
2022-08-06T12:59:05.204Z,74.60
2022-08-06T13:02:07.409Z,74.20
2022-08-06T13:04:30.372Z,74.20
2022-08-06T13:07:02.782Z,74.20
2022-08-06T13:09:35.990Z,74.10
2022-08-06T13:12:29.666Z,73.90
2022-08-06T13:15:17.514Z,73.60
2022-08-06T13:18:13.430Z,72.70
2022-08-06T13:20:54.513Z,72.20
2022-08-06T13:23:36.904Z,73.80
2022-08-06T13:26:26.157Z,73.70
2022-08-06T13:30:31.882Z,73.70
2022-08-06T13:32:11.256Z,73.80
2022-08-06T13:34:56.274Z,73.50
2022-08-06T13:37:56.635Z,73.00
2022-08-06T13:40:46.562Z,73.60
2022-08-06T13:43:39.179Z,74.60
2022-08-06T13:46:16.913Z,74.50
2022-08-06T13:48:49.473Z,73.70
2022-08-06T13:51:22.217Z,73.40
2022-08-06T13:53:57.583Z,74.20
2022-08-06T13:56:29.133Z,74.50
2022-08-06T13:58:58.338Z,74.80
2022-08-06T14:01:34.852Z,75.00
2022-08-06T14:04:18.057Z,75.40
2022-08-06T14:06:48.213Z,76.00
2022-08-06T14:09:20.687Z,76.10
2022-08-06T14:11:57.800Z,76.50
2022-08-06T14:14:29.077Z,76.80
2022-08-06T14:16:59.221Z,77.30
2022-08-06T14:20:14.490Z,77.60
2022-08-06T14:22:18.685Z,78.00
2022-08-06T14:24:54.588Z,78.60
2022-08-06T14:27:24.629Z,79.60
2022-08-06T14:30:28.601Z,79.50
2022-08-06T14:32:45.779Z,79.90
2022-08-06T14:35:18.680Z,81.30
2022-08-06T14:37:51.386Z,83.40
2022-08-06T14:40:59.438Z,84.10
2022-08-06T14:43:59.938Z,84.00
2022-08-06T14:46:30.546Z,84.80
2022-08-06T14:49:05.694Z,84.10
2022-08-06T14:52:19.339Z,84.70
2022-08-06T14:54:32.012Z,86.20
2022-08-06T14:57:02.229Z,86.80
2022-08-06T14:59:32.302Z,85.30
2022-08-06T15:02:11.495Z,85.90
2022-08-06T15:04:40.045Z,85.60
2022-08-06T15:07:24.490Z,85.60
2022-08-06T15:10:05.142Z,86.30
2022-08-06T15:12:49.677Z,87.80
2022-08-06T15:15:26.879Z,89.00
2022-08-06T15:18:40.182Z,90.10
2022-08-06T15:20:57.653Z,90.20
2022-08-06T15:23:30.750Z,90.20
2022-08-06T15:26:42.254Z,90.30
2022-08-06T15:28:49.379Z,90.50
2022-08-06T15:31:18.863Z,90.70
2022-08-06T15:33:49.386Z,91.10
2022-08-06T15:36:17.778Z,91.00
2022-08-06T15:38:49.188Z,91.10
2022-08-06T15:41:18.465Z,91.00
2022-08-06T15:43:51.258Z,90.80
2022-08-06T15:46:28.432Z,90.40
2022-08-06T15:48:59.578Z,90.00
2022-08-06T15:51:31.450Z,89.50
2022-08-06T15:54:01.945Z,89.40
2022-08-06T15:56:39.419Z,89.20
2022-08-06T15:59:21.145Z,89.30
2022-08-06T16:02:01.851Z,89.40
2022-08-06T16:04:36.572Z,89.70
2022-08-06T16:07:06.687Z,90.00
2022-08-06T16:10:00.814Z,90.50
2022-08-06T16:12:25.937Z,90.20
2022-08-06T16:14:57.676Z,90.20
2022-08-06T16:17:53.453Z,90.20
2022-08-06T16:20:20.766Z,90.30
2022-08-06T16:22:52.567Z,90.30
2022-08-06T16:25:23.868Z,90.40
2022-08-06T16:28:14.597Z,90.40
2022-08-06T16:31:05.479Z,90.50
2022-08-06T16:33:53.947Z,90.50
2022-08-06T16:36:32.806Z,90.30
2022-08-06T16:39:01.958Z,90.60
2022-08-06T16:41:58.553Z,90.00
2022-08-06T16:44:34.883Z,89.30
2022-08-06T16:47:06.269Z,88.80
2022-08-06T16:50:17.455Z,88.50
2022-08-06T16:52:44.557Z,88.40
2022-08-06T16:55:12.722Z,88.30
2022-08-06T16:57:45.030Z,88.20
2022-08-06T17:01:00.708Z,88.10
2022-08-06T17:03:14.399Z,88.10
2022-08-06T17:05:46.073Z,88.20
2022-08-06T17:08:16.981Z,88.00
2022-08-06T17:10:58.160Z,87.90
2022-08-06T17:13:38.554Z,87.90
2022-08-06T17:16:12.621Z,87.90
2022-08-06T17:21:53.025Z,87.80
2022-08-06T17:24:18.040Z,87.60
2022-08-06T17:27:09.298Z,87.70
2022-08-06T17:32:32.590Z,88.30
2022-08-06T17:35:06.683Z,88.60
2022-08-06T17:37:43.400Z,88.90
2022-08-06T17:40:19.096Z,89.00
2022-08-06T17:43:00.362Z,89.10
2022-08-06T17:45:35.016Z,88.90
2022-08-06T17:48:04.390Z,88.80
2022-08-06T17:50:40.864Z,88.80
2022-08-06T17:53:19.927Z,89.00
2022-08-06T17:55:59.519Z,88.90
2022-08-06T17:58:37.626Z,89.00
2022-08-06T18:01:16.978Z,88.90
2022-08-06T18:04:00.800Z,88.90
2022-08-06T18:06:29.685Z,89.20
2022-08-06T18:08:59.203Z,89.40
2022-08-06T18:11:46.879Z,89.80
2022-08-06T18:14:31.950Z,90.00
2022-08-06T18:17:03.212Z,90.00
2022-08-06T18:19:36.625Z,90.00
2022-08-06T18:22:21.410Z,90.00
2022-08-06T18:24:52.925Z,90.00
2022-08-06T18:27:53.790Z,89.90
2022-08-06T18:30:36.628Z,90.00
2022-08-06T18:33:08.069Z,89.90
2022-08-06T18:35:55.758Z,89.80
2022-08-06T18:38:25.530Z,88.60
2022-08-06T18:41:14.258Z,86.90
2022-08-06T18:43:54.146Z,85.20
2022-08-06T18:46:55.912Z,83.60
2022-08-06T18:49:15.524Z,83.00
2022-08-06T18:51:47.150Z,82.60
2022-08-06T18:54:21.291Z,82.40
2022-08-06T18:56:52.198Z,82.00
2022-08-06T18:59:27.462Z,82.00
2022-08-06T19:01:58.210Z,81.80
2022-08-06T19:04:30.176Z,81.80
2022-08-06T19:07:00.647Z,81.60
2022-08-06T19:09:34.013Z,81.40
2022-08-06T19:12:13.018Z,81.60
2022-08-06T19:14:44.088Z,81.70
2022-08-06T19:17:13.387Z,81.80
2022-08-06T19:20:18.048Z,81.80
2022-08-06T19:22:33.569Z,81.50
2022-08-06T19:25:09.573Z,81.30
2022-08-06T19:28:30.855Z,81.30
2022-08-06T19:30:27.911Z,81.30
2022-08-06T19:33:16.078Z,81.20
2022-08-06T19:36:07.115Z,80.70
2022-08-06T19:38:35.241Z,80.10
2022-08-06T19:41:03.905Z,80.00
2022-08-06T19:44:25.486Z,79.50
2022-08-06T19:46:31.889Z,79.30
2022-08-06T19:49:04.379Z,78.90
2022-08-06T19:52:02.789Z,78.60
2022-08-06T19:54:26.403Z,76.90
2022-08-06T19:57:08.352Z,75.50
2022-08-06T20:00:50.323Z,75.50
2022-08-06T20:02:28.963Z,75.90
2022-08-06T20:04:58.380Z,77.00
2022-08-06T20:07:28.760Z,78.20
2022-08-06T20:10:01.957Z,78.90
2022-08-06T20:12:34.440Z,79.70
2022-08-06T20:15:04.978Z,80.50
2022-08-06T20:17:48.563Z,81.30
2022-08-06T20:20:28.880Z,81.50
2022-08-06T20:23:08.396Z,81.90
2022-08-06T20:26:08.595Z,82.00
2022-08-06T20:29:08.553Z,82.30
2022-08-06T20:31:19.822Z,82.50
2022-08-06T20:33:57.851Z,82.70
2022-08-06T20:36:29.437Z,82.80
2022-08-06T20:39:00.485Z,83.00
2022-08-06T20:42:03.160Z,83.10
2022-08-06T20:44:20.022Z,83.40
2022-08-06T20:47:44.154Z,83.70
2022-08-06T20:50:02.995Z,84.00
2022-08-06T20:52:28.722Z,84.40
2022-08-06T20:54:59.802Z,84.80
2022-08-06T20:57:37.275Z,85.10
2022-08-06T21:00:17.783Z,85.40
2022-08-06T21:03:03.379Z,85.70
2022-08-06T21:05:50.368Z,85.50
2022-08-06T21:08:20.003Z,85.70
2022-08-06T21:10:58.359Z,85.90
2022-08-06T21:13:35.885Z,86.20
2022-08-06T21:16:29.035Z,86.10
2022-08-06T21:19:01.184Z,86.30
2022-08-06T21:21:31.640Z,86.60
2022-08-06T21:24:01.117Z,86.70
2022-08-06T21:26:35.246Z,86.70
2022-08-06T21:29:41.920Z,86.70
2022-08-06T21:31:57.703Z,86.80
2022-08-06T21:34:27.640Z,87.00
2022-08-06T21:36:56.646Z,86.60
2022-08-06T21:39:52.202Z,86.70
2022-08-06T21:42:16.012Z,86.70
2022-08-06T21:44:45.529Z,86.30
2022-08-06T21:47:19.793Z,86.10
2022-08-06T21:50:19.057Z,85.80
2022-08-06T21:52:37.699Z,85.60
2022-08-06T21:56:35.085Z,85.30
2022-08-06T21:58:02.693Z,85.10
2022-08-06T22:00:46.459Z,85.00
2022-08-06T22:04:38.327Z,84.90
2022-08-06T22:06:21.380Z,85.00
2022-08-06T22:08:55.581Z,85.20
2022-08-06T22:12:36.571Z,84.80
2022-08-06T22:14:28.790Z,84.80
2022-08-06T22:17:04.751Z,84.90
2022-08-06T22:19:38.293Z,84.50
2022-08-06T22:22:08.239Z,84.50
2022-08-06T22:24:37.527Z,84.30
2022-08-06T22:27:12.736Z,84.40
2022-08-06T22:30:04.290Z,84.40
2022-08-06T22:32:36.222Z,84.10
2022-08-06T22:35:09.720Z,83.80
2022-08-06T22:38:16.515Z,83.50
2022-08-06T22:40:29.991Z,83.40
2022-08-06T22:43:01.559Z,83.40
2022-08-06T22:46:00.205Z,83.80
2022-08-06T22:48:36.349Z,83.90
2022-08-06T22:51:06.134Z,83.80
2022-08-06T22:54:28.728Z,83.90
2022-08-06T22:56:28.831Z,83.30
2022-08-06T22:59:06.282Z,83.40
2022-08-06T23:02:06.579Z,83.70
2022-08-06T23:04:36.896Z,83.70
2022-08-06T23:07:09.308Z,83.80
2022-08-06T23:09:39.735Z,83.70
2022-08-06T23:12:11.326Z,84.60
2022-08-06T23:14:41.687Z,83.90
2022-08-06T23:17:12.556Z,84.10
2022-08-06T23:19:56.404Z,84.10
2022-08-06T23:22:28.882Z,84.20
2022-08-06T23:26:01.065Z,84.40
2022-08-06T23:27:51.651Z,84.70
2022-08-06T23:30:21.264Z,84.80
2022-08-06T23:32:51.345Z,85.00
2022-08-06T23:35:37.081Z,85.20
2022-08-06T23:38:31.969Z,85.40
2022-08-06T23:40:55.172Z,85.50
2022-08-06T23:43:24.130Z,85.60
2022-08-06T23:45:52.997Z,85.60
2022-08-06T23:48:22.994Z,85.80
2022-08-06T23:50:54.405Z,85.80
2022-08-06T23:54:06.052Z,85.80
2022-08-06T23:56:13.705Z,85.90
2022-08-06T23:58:48.771Z,85.90
